createdAt,value
2022-10-14T00:01:39.067Z,99784.94
2022-10-14T00:04:06.492Z,99786.56
2022-10-14T00:06:34.493Z,99781.09
2022-10-14T00:09:05.176Z,99770.69
2022-10-14T00:11:33.282Z,99768.53
2022-10-14T00:14:06.239Z,99767.47
2022-10-14T00:16:39.245Z,99776.81
2022-10-14T00:19:07.706Z,99777.16
2022-10-14T00:21:36.767Z,99766.53
2022-10-14T00:24:05.744Z,99765.72
2022-10-14T00:26:35.959Z,99762.63
2022-10-14T00:29:05.215Z,99760.34
2022-10-14T00:31:32.817Z,99755.75
2022-10-14T00:33:59.989Z,99762.06
2022-10-14T00:36:27.422Z,99767.25
2022-10-14T00:38:55.265Z,99762.09
2022-10-14T00:41:30.274Z,99760.25
2022-10-14T00:44:06.099Z,99768.28
2022-10-14T00:46:35.711Z,99755.19
2022-10-14T00:49:10.671Z,99760.63
2022-10-14T00:51:40.015Z,99726.25
2022-10-14T00:54:08.137Z,99750.13
2022-10-14T00:56:35.911Z,99761.63
2022-10-14T00:59:05.068Z,99763.03
2022-10-14T01:01:32.517Z,99748.31
2022-10-14T01:03:59.471Z,99752.41
2022-10-14T01:06:43.402Z,99749.13
2022-10-14T01:09:10.487Z,99757.03
2022-10-14T01:15:19.760Z,99756.22
2022-10-14T01:18:00.421Z,99766.88
2022-10-14T01:20:56.722Z,99758.41
2022-10-14T01:23:36.150Z,99760.09
2022-10-14T01:26:15.296Z,99765.00
2022-10-14T01:29:00.869Z,99768.88
2022-10-14T01:31:35.036Z,99762.63
2022-10-14T01:34:08.503Z,99762.38
2022-10-14T01:36:54.694Z,99763.44
2022-10-14T01:39:30.123Z,99755.53
2022-10-14T01:42:48.180Z,99745.41
2022-10-14T01:45:20.712Z,99739.16
2022-10-14T01:47:53.440Z,99749.81
2022-10-14T01:50:24.083Z,99740.03
2022-10-14T01:52:58.471Z,99746.63
2022-10-14T01:55:31.090Z,99685.34
2022-10-14T01:58:00.160Z,99748.81
2022-10-14T02:00:27.414Z,99736.03
2022-10-14T02:02:54.430Z,99739.06
2022-10-14T02:05:32.146Z,99741.97
2022-10-14T02:08:11.053Z,99712.16
2022-10-14T02:11:19.927Z,99730.41
2022-10-14T02:14:02.065Z,99733.38
2022-10-14T02:16:45.251Z,99739.69
2022-10-14T02:19:42.883Z,99736.66
2022-10-14T02:22:40.058Z,99737.75
2022-10-14T02:25:24.152Z,99732.88
2022-10-14T02:27:53.397Z,99725.50
2022-10-14T02:30:21.607Z,99735.38
2022-10-14T02:32:57.663Z,99729.72
2022-10-14T02:35:25.409Z,99733.00
2022-10-14T02:37:56.749Z,99732.50
2022-10-14T02:40:26.919Z,99728.19
2022-10-14T02:42:54.794Z,99729.38
2022-10-14T02:45:24.558Z,99729.09
2022-10-14T02:47:51.538Z,99726.69
2022-10-14T02:50:19.195Z,99722.78
2022-10-14T02:52:46.163Z,99716.25
2022-10-14T02:55:14.294Z,99710.28
2022-10-14T02:57:41.763Z,99720.66
2022-10-14T03:00:09.434Z,99729.47
2022-10-14T03:02:37.074Z,99710.84
2022-10-14T03:05:05.262Z,99716.59
2022-10-14T03:07:32.433Z,99711.44
2022-10-14T03:10:03.021Z,99701.66
2022-10-14T03:12:33.685Z,99706.56
2022-10-14T03:15:00.806Z,99705.72
2022-10-14T03:17:28.958Z,99701.28
2022-10-14T03:20:00.098Z,99691.47
2022-10-14T03:22:27.158Z,99695.00
2022-10-14T03:24:55.798Z,99702.44
2022-10-14T03:27:42.987Z,99690.47
2022-10-14T03:30:13.442Z,99704.41
2022-10-14T03:32:53.273Z,99706.84
2022-10-14T03:35:38.907Z,99704.41
2022-10-14T03:38:10.923Z,99709.06
2022-10-14T03:40:37.990Z,99703.06
2022-10-14T03:43:08.553Z,99701.69
2022-10-14T03:45:47.492Z,99699.78
2022-10-14T03:48:17.818Z,99712.66
2022-10-14T03:50:44.742Z,99703.91
2022-10-14T03:53:11.708Z,99705.34
2022-10-14T03:55:38.775Z,99712.22
2022-10-14T03:58:06.604Z,99713.31
2022-10-14T04:00:35.604Z,99710.31
2022-10-14T04:03:20.744Z,99712.47
2022-10-14T04:05:47.878Z,99707.81
2022-10-14T04:08:18.314Z,99716.56
2022-10-14T04:10:53.763Z,99688.25
2022-10-14T04:13:21.563Z,99713.53
2022-10-14T04:15:48.660Z,99716.91
2022-10-14T04:18:37.033Z,99719.94
2022-10-14T04:21:08.134Z,99713.97
2022-10-14T04:23:36.880Z,99701.44
2022-10-14T04:26:12.392Z,99699.81
2022-10-14T04:28:39.868Z,99703.91
2022-10-14T04:31:13.066Z,99703.09
2022-10-14T04:33:55.337Z,99691.28
2022-10-14T04:36:29.482Z,99680.94
2022-10-14T04:38:58.884Z,99695.88
2022-10-14T04:41:25.732Z,99697.50
2022-10-14T04:43:55.395Z,99701.88
2022-10-14T04:46:31.530Z,99692.88
2022-10-14T04:48:59.020Z,99699.06
2022-10-14T04:51:30.615Z,99694.41
2022-10-14T04:54:15.820Z,99703.44
2022-10-14T04:56:51.718Z,99699.06
2022-10-14T04:59:21.932Z,99708.88
2022-10-14T05:02:09.885Z,99693.03
2022-10-14T05:04:42.383Z,99708.25
2022-10-14T05:07:10.186Z,99690.22
2022-10-14T05:09:38.117Z,99692.38
2022-10-14T05:12:15.151Z,99702.72
2022-10-14T05:14:49.481Z,99696.16
2022-10-14T05:17:23.977Z,99689.84
2022-10-14T05:19:51.703Z,99706.47
2022-10-14T05:22:22.118Z,99698.03
2022-10-14T05:24:50.641Z,99707.00
2022-10-14T05:27:18.605Z,99693.94
2022-10-14T05:29:46.608Z,99709.47
2022-10-14T05:32:14.822Z,99708.59
2022-10-14T05:34:45.598Z,99699.63
2022-10-14T05:37:32.085Z,99713.22
2022-10-14T05:40:00.688Z,99712.59
2022-10-14T05:42:28.505Z,99716.75
2022-10-14T05:44:59.009Z,99710.97
2022-10-14T05:47:28.808Z,99710.88
2022-10-14T05:50:03.829Z,99714.06
2022-10-14T05:52:34.432Z,99712.38
2022-10-14T05:55:10.348Z,99696.22
2022-10-14T05:57:38.473Z,99717.09
2022-10-14T06:00:07.657Z,99707.66
2022-10-14T06:02:44.848Z,99715.66
2022-10-14T06:05:15.710Z,99721.59
2022-10-14T06:07:44.842Z,99707.75
2022-10-14T06:10:15.238Z,99719.63
2022-10-14T06:12:43.878Z,99713.63
2022-10-14T06:15:12.932Z,99712.88
2022-10-14T06:17:41.051Z,99715.13
2022-10-14T06:20:10.883Z,99715.91
2022-10-14T06:22:39.503Z,99722.28
2022-10-14T06:25:08.060Z,99717.84
2022-10-14T06:27:39.422Z,99713.13
2022-10-14T06:30:08.276Z,99726.75
2022-10-14T06:32:37.756Z,99715.97
2022-10-14T06:35:15.311Z,99710.75
2022-10-14T06:37:47.360Z,99703.81
2022-10-14T06:40:15.884Z,99709.03
2022-10-14T06:42:44.092Z,99704.81
2022-10-14T06:45:17.133Z,99699.38
2022-10-14T06:47:45.221Z,99689.53
2022-10-14T06:50:14.938Z,99709.41
2022-10-14T06:52:42.983Z,99709.03
2022-10-14T06:55:12.163Z,99690.22
2022-10-14T06:58:57.296Z,99712.63
2022-10-14T07:06:23.221Z,99708.69
2022-10-14T07:08:51.385Z,99707.13
2022-10-14T07:11:19.873Z,99695.13
2022-10-14T07:13:49.840Z,99705.44
2022-10-14T07:16:18.013Z,99701.22
2022-10-14T07:18:46.359Z,99704.28
2022-10-14T07:21:14.650Z,99710.63
2022-10-14T07:23:44.084Z,99692.09
2022-10-14T07:29:28.021Z,99709.41
2022-10-14T07:31:56.873Z,99697.03
2022-10-14T07:37:33.415Z,99702.66
2022-10-14T07:40:00.737Z,99702.25
2022-10-14T07:42:28.032Z,99705.47
2022-10-14T07:44:55.177Z,99695.47
2022-10-14T07:47:22.724Z,99698.13
2022-10-14T07:49:51.443Z,99702.63
2022-10-14T07:52:19.947Z,99699.66
2022-10-14T07:54:47.057Z,99698.72
2022-10-14T07:57:14.204Z,99693.56
2022-10-14T07:59:41.214Z,99696.16
2022-10-14T08:02:08.411Z,99676.31
2022-10-14T08:04:35.512Z,99686.72
2022-10-14T08:07:05.017Z,99686.34
2022-10-14T08:09:34.425Z,99680.34
2022-10-14T08:12:02.046Z,99682.91
2022-10-14T08:14:29.523Z,99675.16
2022-10-14T08:16:56.952Z,99664.63
2022-10-14T08:19:24.665Z,99671.78
2022-10-14T08:21:52.386Z,99680.38
2022-10-14T08:24:19.448Z,99664.41
2022-10-14T08:26:55.809Z,99664.88
2022-10-14T08:29:22.909Z,99668.22
2022-10-14T08:31:52.769Z,99672.66
2022-10-14T08:34:24.866Z,99667.91
2022-10-14T08:36:52.482Z,99668.38
2022-10-14T08:39:20.355Z,99676.03
2022-10-14T08:42:32.101Z,99676.47
2022-10-14T08:45:10.300Z,99679.50
2022-10-14T08:47:44.288Z,99665.13
2022-10-14T08:50:47.796Z,99674.75
2022-10-14T08:53:31.056Z,99679.50
2022-10-14T08:56:01.036Z,99681.47
2022-10-14T08:58:42.649Z,99668.72
2022-10-14T09:01:19.964Z,99671.97
2022-10-14T09:03:47.661Z,99671.84
2022-10-14T09:06:26.615Z,99664.91
2022-10-14T09:08:58.873Z,99675.91
2022-10-14T09:11:33.559Z,99665.53
2022-10-14T09:14:03.988Z,99673.19
2022-10-14T09:16:36.264Z,99670.91
2022-10-14T09:19:09.154Z,99668.31
2022-10-14T09:21:53.003Z,99664.81
2022-10-14T09:24:27.501Z,99660.84
2022-10-14T09:27:04.636Z,99660.81
2022-10-14T09:29:43.154Z,99659.19
2022-10-14T09:32:16.542Z,99668.81
2022-10-14T09:34:49.594Z,99672.97
2022-10-14T09:37:22.997Z,99667.53
2022-10-14T09:39:52.071Z,99671.16
2022-10-14T09:42:27.489Z,99658.50
2022-10-14T09:45:25.356Z,99661.63
2022-10-14T09:47:58.585Z,99655.53
2022-10-14T09:50:52.098Z,99663.97
2022-10-14T09:53:26.839Z,99666.13
2022-10-14T09:56:00.391Z,99626.13
2022-10-14T09:58:45.245Z,99657.59
2022-10-14T10:01:24.719Z,99653.09
2022-10-14T10:03:54.372Z,99664.16
2022-10-14T10:06:26.533Z,99651.31
2022-10-14T10:08:53.937Z,99653.81
2022-10-14T10:11:40.072Z,99645.38
2022-10-14T10:14:28.391Z,99657.59
2022-10-14T10:17:08.226Z,99650.50
2022-10-14T10:19:37.683Z,99661.44
2022-10-14T10:22:20.766Z,99648.91
2022-10-14T10:24:49.650Z,99653.34
2022-10-14T10:27:32.236Z,99641.38
2022-10-14T10:30:15.597Z,99631.38
2022-10-14T10:33:15.046Z,99647.53
2022-10-14T10:39:30.321Z,99631.25
2022-10-14T10:42:25.344Z,99634.09
2022-10-14T10:45:16.192Z,99625.28
2022-10-14T10:48:00.270Z,99620.38
2022-10-14T10:50:44.024Z,99627.06
2022-10-14T10:53:29.723Z,99624.28
2022-10-14T10:56:24.025Z,99609.28
2022-10-14T10:59:15.955Z,99620.44
2022-10-14T11:02:03.893Z,99609.41
2022-10-14T11:05:01.073Z,99583.59
2022-10-14T11:08:17.226Z,99593.88
2022-10-14T11:11:41.630Z,99600.63
2022-10-14T11:14:14.398Z,99590.75
2022-10-14T11:17:09.966Z,99589.41
2022-10-14T11:19:59.074Z,99583.75
2022-10-14T11:22:40.169Z,99578.09
2022-10-14T11:25:19.218Z,99579.44
2022-10-14T11:27:55.490Z,99567.16
2022-10-14T11:30:45.267Z,99559.97
2022-10-14T11:33:44.910Z,99577.50
2022-10-14T11:36:36.067Z,99574.00
2022-10-14T11:39:20.300Z,99568.72
2022-10-14T11:42:13.721Z,99559.06
2022-10-14T11:44:43.557Z,99550.69
2022-10-14T11:47:22.743Z,99553.09
2022-10-14T11:50:23.833Z,99563.41
2022-10-14T11:52:58.156Z,99564.81
2022-10-14T11:55:30.169Z,99560.09
2022-10-14T11:58:09.518Z,99564.72
2022-10-14T12:01:02.248Z,99553.63
2022-10-14T12:04:04.187Z,99548.50
2022-10-14T12:06:40.015Z,99556.19
2022-10-14T12:09:25.486Z,99553.25
2022-10-14T12:12:04.821Z,99551.47
2022-10-14T12:14:46.535Z,99556.91
2022-10-14T12:17:27.917Z,99542.59
2022-10-14T12:19:56.456Z,99551.69
2022-10-14T12:22:25.962Z,99550.59
2022-10-14T12:25:10.262Z,99557.59
2022-10-14T12:27:38.040Z,99547.13
2022-10-14T12:30:05.220Z,99543.66
2022-10-14T12:32:32.718Z,99554.66
2022-10-14T12:35:01.707Z,99550.59
2022-10-14T12:37:38.217Z,99554.25
2022-10-14T12:40:06.799Z,99566.22
2022-10-14T12:42:51.911Z,99517.56
2022-10-14T12:45:27.060Z,99551.31
2022-10-14T12:48:03.147Z,99559.75
2022-10-14T12:50:35.604Z,99552.41
2022-10-14T12:53:14.346Z,99545.00
2022-10-14T12:55:51.355Z,99544.72
2022-10-14T12:58:30.115Z,99557.47
2022-10-14T13:01:19.104Z,99552.25
2022-10-14T13:03:55.190Z,99561.19
2022-10-14T13:06:30.738Z,99568.28
2022-10-14T13:09:30.650Z,99574.56
2022-10-14T13:11:57.950Z,99571.03
2022-10-14T13:14:30.072Z,99580.75
2022-10-14T13:16:59.901Z,99580.06
2022-10-14T13:19:32.898Z,99573.84
2022-10-14T13:22:01.929Z,99572.63
2022-10-14T13:24:40.409Z,99578.25
2022-10-14T13:27:34.222Z,99581.97
2022-10-14T13:30:16.173Z,99573.63
2022-10-14T13:32:48.539Z,99577.59
2022-10-14T13:35:32.711Z,99573.31
2022-10-14T13:38:06.706Z,99551.69
2022-10-14T13:40:59.571Z,99578.06
2022-10-14T13:43:39.334Z,99567.88
2022-10-14T13:46:16.304Z,99567.88
2022-10-14T13:48:51.702Z,99556.56
2022-10-14T13:51:49.111Z,99567.88
2022-10-14T13:54:22.706Z,99562.22
2022-10-14T13:57:12.596Z,99562.34
2022-10-14T14:00:22.601Z,99565.34
2022-10-14T14:02:40.008Z,99565.69
2022-10-14T14:05:15.247Z,99566.41
2022-10-14T14:10:31.527Z,99567.28
2022-10-14T14:13:03.685Z,99561.75
2022-10-14T14:15:30.679Z,99558.16
2022-10-14T14:17:57.671Z,99558.28
2022-10-14T14:20:28.786Z,99554.81
2022-10-14T14:22:59.110Z,99562.22
2022-10-14T14:25:35.288Z,99562.09
2022-10-14T14:28:15.342Z,99558.41
2022-10-14T14:30:54.319Z,99554.69
2022-10-14T14:33:32.393Z,99557.72
2022-10-14T14:36:03.967Z,99554.25
2022-10-14T14:38:33.922Z,99568.16
2022-10-14T14:41:24.558Z,99556.81
2022-10-14T14:44:24.003Z,99568.50
2022-10-14T14:46:45.392Z,99566.88
2022-10-14T14:49:17.801Z,99563.50
2022-10-14T14:51:46.114Z,99557.38
2022-10-14T14:54:18.914Z,99558.88
2022-10-14T14:56:52.460Z,99557.25
2022-10-14T14:59:26.495Z,99561.19
2022-10-14T15:01:54.673Z,99561.31
2022-10-14T15:04:25.427Z,99563.03
2022-10-14T15:06:59.934Z,99565.69
2022-10-14T15:09:45.030Z,99568.13
2022-10-14T15:12:22.590Z,99562.78
2022-10-14T15:14:51.424Z,99553.19
2022-10-14T15:17:39.683Z,99551.44
2022-10-14T15:20:33.973Z,99566.59
2022-10-14T15:23:00.965Z,99564.16
2022-10-14T15:25:31.197Z,99567.28
2022-10-14T15:28:00.083Z,99571.22
2022-10-14T15:30:37.434Z,99567.63
2022-10-14T15:33:18.056Z,99567.50
2022-10-14T15:35:46.651Z,99573.84
2022-10-14T15:38:16.674Z,99561.72
2022-10-14T15:40:45.435Z,99567.97
2022-10-14T15:43:20.392Z,99568.09
2022-10-14T15:46:24.986Z,99570.28
2022-10-14T15:48:58.600Z,99572.47
2022-10-14T15:51:30.786Z,99574.75
2022-10-14T15:53:58.312Z,99571.75
2022-10-14T15:56:25.137Z,99574.97
2022-10-14T15:58:52.144Z,99578.56
2022-10-14T16:01:23.835Z,99579.84
2022-10-14T16:03:52.479Z,99586.38
2022-10-14T16:06:22.505Z,99582.91
2022-10-14T16:08:49.719Z,99590.31
2022-10-14T16:11:22.667Z,99588.88
2022-10-14T16:13:49.605Z,99595.97
2022-10-14T16:16:21.971Z,99596.25
2022-10-14T16:18:48.895Z,99599.50
2022-10-14T16:21:17.198Z,99604.72
2022-10-14T16:23:44.791Z,99616.50
2022-10-14T16:26:13.873Z,99608.25
2022-10-14T16:28:40.912Z,99608.72
2022-10-14T16:31:12.571Z,99616.09
2022-10-14T16:33:41.838Z,99613.84
2022-10-14T16:36:14.728Z,99611.44
2022-10-14T16:38:41.672Z,99627.25
2022-10-14T16:41:11.228Z,99623.53
2022-10-14T16:43:38.690Z,99631.38
2022-10-14T16:46:10.359Z,99636.78
2022-10-14T16:48:39.529Z,99628.81
2022-10-14T16:51:06.714Z,99642.03
2022-10-14T16:53:44.987Z,99641.38
2022-10-14T16:56:36.230Z,99638.81
2022-10-14T16:59:04.268Z,99632.66
2022-10-14T17:01:32.039Z,99634.47
2022-10-14T17:03:59.352Z,99642.78
2022-10-14T17:06:26.693Z,99643.44
2022-10-14T17:08:53.991Z,99635.81
2022-10-14T17:11:21.298Z,99635.81
2022-10-14T17:13:52.715Z,99631.16
2022-10-14T17:16:19.697Z,99650.56
2022-10-14T17:21:18.699Z,99643.28
2022-10-14T17:23:45.779Z,99642.00
2022-10-14T17:26:21.081Z,99658.75
2022-10-14T17:28:48.581Z,99660.38
2022-10-14T17:31:22.856Z,99664.50
2022-10-14T17:33:50.177Z,99663.38
2022-10-14T17:36:20.040Z,99656.88
2022-10-14T17:38:48.532Z,99642.28
2022-10-14T17:41:15.794Z,99660.47
2022-10-14T17:43:45.991Z,99663.41
2022-10-14T17:46:13.411Z,99660.84
2022-10-14T17:48:42.570Z,99653.19
2022-10-14T17:51:13.616Z,99662.13
2022-10-14T17:53:40.749Z,99666.53
2022-10-14T17:56:10.673Z,99672.06
2022-10-14T17:58:37.935Z,99669.97
2022-10-14T18:01:16.849Z,99668.34
2022-10-14T18:03:45.090Z,99661.34
2022-10-14T18:06:27.079Z,99581.97
2022-10-14T18:09:05.866Z,99669.66
2022-10-14T18:11:56.118Z,99674.03
2022-10-14T18:14:22.461Z,99673.56
2022-10-14T18:16:49.275Z,99670.97
2022-10-14T18:19:41.704Z,99681.38
2022-10-14T18:22:11.197Z,99670.31
2022-10-14T18:24:39.429Z,99670.97
2022-10-14T18:27:06.520Z,99664.19
2022-10-14T18:29:33.382Z,99664.84
2022-10-14T18:32:00.226Z,99671.88
2022-10-14T18:34:27.751Z,99673.50
2022-10-14T18:36:54.771Z,99664.56
2022-10-14T18:39:21.834Z,99668.81
2022-10-14T18:41:49.320Z,99674.34
2022-10-14T18:44:16.180Z,99686.03
2022-10-14T18:46:43.637Z,99681.81
2022-10-14T18:49:11.509Z,99688.31
2022-10-14T18:51:40.234Z,99690.94
2022-10-14T18:54:15.740Z,99687.69
2022-10-14T18:56:43.710Z,99684.91
2022-10-14T18:59:13.989Z,99693.06
2022-10-14T19:01:54.944Z,99695.66
2022-10-14T19:04:29.991Z,99700.38
2022-10-14T19:06:56.961Z,99691.44
2022-10-14T19:09:30.808Z,99698.28
2022-10-14T19:12:49.605Z,99705.09
2022-10-14T19:15:18.372Z,99705.91
2022-10-14T19:17:50.915Z,99708.69
2022-10-14T19:20:21.026Z,99710.31
2022-10-14T19:22:47.894Z,99706.56
2022-10-14T19:25:16.609Z,99708.19
2022-10-14T19:27:44.235Z,99701.69
2022-10-14T19:30:11.533Z,99706.25
2022-10-14T19:32:38.526Z,99712.41
2022-10-14T19:35:05.839Z,99710.31
2022-10-14T19:37:32.675Z,99714.84
2022-10-14T19:39:59.838Z,99715.50
2022-10-14T19:42:26.824Z,99717.31
2022-10-14T19:44:53.678Z,99721.19
2022-10-14T19:47:20.785Z,99716.00
2022-10-14T19:49:48.187Z,99721.53
2022-10-14T19:52:15.070Z,99723.47
2022-10-14T19:54:43.051Z,99736.16
2022-10-14T19:57:09.835Z,99726.91
2022-10-14T19:59:36.713Z,99726.22
2022-10-14T20:02:03.802Z,99731.28
2022-10-14T20:04:30.620Z,99725.13
2022-10-14T20:06:57.490Z,99734.06
2022-10-14T20:09:24.420Z,99736.81
2022-10-14T20:11:52.469Z,99738.59
2022-10-14T20:14:19.388Z,99745.91
2022-10-14T20:16:46.345Z,99739.56
2022-10-14T20:19:13.243Z,99723.75
2022-10-14T20:21:40.031Z,99735.44
2022-10-14T20:24:07.092Z,99739.66
2022-10-14T20:26:34.543Z,99739.16
2022-10-14T20:29:01.376Z,99731.19
2022-10-14T20:31:28.285Z,99734.91
2022-10-14T20:33:56.896Z,99731.81
2022-10-14T20:36:24.293Z,99726.47
2022-10-14T20:38:51.685Z,99728.72
2022-10-14T20:41:19.931Z,99732.47
2022-10-14T20:43:47.431Z,99738.78
2022-10-14T20:46:15.184Z,99727.88
2022-10-14T20:48:42.403Z,99724.16
2022-10-14T20:51:12.704Z,99736.66
2022-10-14T20:56:13.149Z,99728.03
2022-10-14T20:58:40.634Z,99722.66
2022-10-14T21:01:13.622Z,99730.09
2022-10-14T21:03:42.480Z,99708.31
2022-10-14T21:06:12.201Z,99717.75
2022-10-14T21:08:39.666Z,99720.47
2022-10-14T21:11:14.052Z,99729.25
2022-10-14T21:13:47.121Z,99727.94
2022-10-14T21:16:14.199Z,99721.13
2022-10-14T21:18:44.446Z,99710.84
2022-10-14T21:21:14.306Z,99709.34
2022-10-14T21:23:44.085Z,99721.38
2022-10-14T21:26:11.039Z,99711.50
2022-10-14T21:28:37.829Z,99710.31
2022-10-14T21:31:07.277Z,99713.56
2022-10-14T21:33:34.700Z,99713.75
2022-10-14T21:36:05.906Z,99714.56
2022-10-14T21:38:32.923Z,99721.84
2022-10-14T21:41:01.016Z,99727.22
2022-10-14T21:43:29.682Z,99726.41
2022-10-14T21:45:56.607Z,99728.81
2022-10-14T21:48:23.559Z,99718.72
2022-10-14T21:51:01.814Z,99716.28
2022-10-14T21:53:31.082Z,99702.25
2022-10-14T21:55:58.559Z,99726.13
2022-10-14T21:58:26.502Z,99733.91
2022-10-14T22:01:01.694Z,99736.97
2022-10-14T22:03:28.824Z,99724.94
2022-10-14T22:06:02.625Z,99730.47
2022-10-14T22:08:31.463Z,99726.84
2022-10-14T22:10:58.409Z,99736.19
2022-10-14T22:13:25.974Z,99717.56
2022-10-14T22:15:53.479Z,99724.19
2022-10-14T22:18:21.412Z,99734.72
2022-10-14T22:20:49.885Z,99732.22
2022-10-14T22:23:17.391Z,99726.81
2022-10-14T22:25:44.492Z,99727.00
2022-10-14T22:28:11.628Z,99734.38
2022-10-14T22:30:38.470Z,99728.38
2022-10-14T22:35:33.315Z,99737.88
2022-10-14T22:38:00.211Z,99741.56
2022-10-14T22:40:27.148Z,99738.41
2022-10-14T22:42:54.337Z,99738.09
2022-10-14T22:45:21.111Z,99743.19
2022-10-14T22:47:48.045Z,99749.94
2022-10-14T22:50:14.896Z,99733.22
2022-10-14T22:52:41.815Z,99748.31
2022-10-14T22:55:09.325Z,99749.75
2022-10-14T22:57:36.381Z,99752.28
2022-10-14T23:00:05.396Z,99753.53
2022-10-14T23:02:32.465Z,99748.78
2022-10-14T23:04:59.463Z,99755.41
2022-10-14T23:07:28.898Z,99749.69
2022-10-14T23:09:56.148Z,99747.25
2022-10-14T23:12:23.171Z,99748.25
2022-10-14T23:14:51.375Z,99742.81
2022-10-14T23:17:18.278Z,99736.81
2022-10-14T23:19:46.773Z,99738.38
2022-10-14T23:22:13.807Z,99738.28
2022-10-14T23:24:40.722Z,99736.13
2022-10-14T23:27:07.615Z,99745.63
2022-10-14T23:29:34.517Z,99751.13
2022-10-14T23:32:02.938Z,99752.25
2022-10-14T23:34:30.554Z,99741.66
2022-10-14T23:36:57.504Z,99739.72
2022-10-14T23:39:24.418Z,99738.59
2022-10-14T23:41:51.295Z,99738.88
2022-10-14T23:44:18.313Z,99729.91
2022-10-14T23:46:45.743Z,99739.91
2022-10-14T23:49:26.788Z,99734.81
2022-10-14T23:51:55.263Z,99734.50
2022-10-14T23:54:22.256Z,99744.72
2022-10-14T23:56:49.228Z,99735.94
2022-10-14T23:59:16.218Z,99736.13
